sensor_id;sensor_type;location;lat;lon;timestamp;pressure;altitude;pressure_sealevel;temperature;humidity
23433;BME280;41331;45.412;10.992;2023-06-10T00:02:28;100477.97;;;22.51;90.02
23433;BME280;41331;45.412;10.992;2023-06-10T00:04:55;100478.34;;;22.56;89.54
23433;BME280;41331;45.412;10.992;2023-06-10T00:07:24;100485.09;;;22.52;90.40
23433;BME280;41331;45.412;10.992;2023-06-10T00:09:52;100487.06;;;22.55;89.81
23433;BME280;41331;45.412;10.992;2023-06-10T00:12:19;100486.22;;;22.61;89.45
23433;BME280;41331;45.412;10.992;2023-06-10T00:14:47;100474.75;;;22.59;89.88
23433;BME280;41331;45.412;10.992;2023-06-10T00:17:17;100483.09;;;22.56;91.19
23433;BME280;41331;45.412;10.992;2023-06-10T00:19:44;100479.56;;;22.48;92.22
23433;BME280;41331;45.412;10.992;2023-06-10T00:22:14;100476.09;;;22.40;92.69
23433;BME280;41331;45.412;10.992;2023-06-10T00:24:41;100479.63;;;22.44;92.46
23433;BME280;41331;45.412;10.992;2023-06-10T00:27:09;100477.72;;;22.34;93.11
23433;BME280;41331;45.412;10.992;2023-06-10T00:29:37;100473.03;;;22.24;93.84
23433;BME280;41331;45.412;10.992;2023-06-10T00:32:06;100467.09;;;22.22;94.07
23433;BME280;41331;45.412;10.992;2023-06-10T00:34:34;100473.78;;;22.28;94.03
23433;BME280;41331;45.412;10.992;2023-06-10T00:37:02;100481.28;;;22.35;93.07
23433;BME280;41331;45.412;10.992;2023-06-10T00:39:30;100483.22;;;22.38;93.63
23433;BME280;41331;45.412;10.992;2023-06-10T00:41:58;100483.25;;;22.34;93.67
23433;BME280;41331;45.412;10.992;2023-06-10T00:44:26;100484.84;;;22.32;92.94
23433;BME280;41331;45.412;10.992;2023-06-10T00:46:54;100482.50;;;22.30;93.22
23433;BME280;41331;45.412;10.992;2023-06-10T00:49:23;100492.03;;;22.22;93.92
23433;BME280;41331;45.412;10.992;2023-06-10T00:51:52;100483.38;;;22.16;94.42
23433;BME280;41331;45.412;10.992;2023-06-10T00:54:20;100484.94;;;22.21;93.33
23433;BME280;41331;45.412;10.992;2023-06-10T00:56:48;100477.03;;;22.16;93.15
23433;BME280;41331;45.412;10.992;2023-06-10T00:59:16;100484.19;;;22.06;93.24
23433;BME280;41331;45.412;10.992;2023-06-10T01:01:45;100490.53;;;22.03;92.96
23433;BME280;41331;45.412;10.992;2023-06-10T01:04:16;100481.06;;;22.01;93.46
23433;BME280;41331;45.412;10.992;2023-06-10T01:09:40;100485.78;;;22.14;92.22
23433;BME280;41331;45.412;10.992;2023-06-10T01:12:43;100491.72;;;22.06;92.19
23433;BME280;41331;45.412;10.992;2023-06-10T01:15:20;100495.66;;;22.08;92.82
23433;BME280;41331;45.412;10.992;2023-06-10T01:17:56;100492.09;;;22.08;92.19
23433;BME280;41331;45.412;10.992;2023-06-10T01:20:26;100488.56;;;22.04;94.55
23433;BME280;41331;45.412;10.992;2023-06-10T01:23:00;100491.72;;;22.06;95.20
23433;BME280;41331;45.412;10.992;2023-06-10T01:25:29;100486.63;;;21.97;95.67
23433;BME280;41331;45.412;10.992;2023-06-10T01:30:46;100486.22;;;21.98;96.61
23433;BME280;41331;45.412;10.992;2023-06-10T01:33:33;100478.75;;;21.88;97.63
23433;BME280;41331;45.412;10.992;2023-06-10T01:36:03;100483.09;;;21.93;97.76
23433;BME280;41331;45.412;10.992;2023-06-10T01:38:35;100483.13;;;21.89;95.83
23433;BME280;41331;45.412;10.992;2023-06-10T01:41:04;100477.59;;;21.89;96.53
23433;BME280;41331;45.412;10.992;2023-06-10T01:43:33;100480.72;;;21.91;96.08
23433;BME280;41331;45.412;10.992;2023-06-10T01:46:02;100477.63;;;21.79;96.40
23433;BME280;41331;45.412;10.992;2023-06-10T01:48:30;100479.19;;;21.83;96.84
23433;BME280;41331;45.412;10.992;2023-06-10T01:50:57;100479.56;;;21.85;95.46
23433;BME280;41331;45.412;10.992;2023-06-10T01:53:25;100478.44;;;21.76;93.86
23433;BME280;41331;45.412;10.992;2023-06-10T01:55:53;100480.81;;;21.73;93.94
23433;BME280;41331;45.412;10.992;2023-06-10T01:58:21;100480.84;;;21.70;94.56
23433;BME280;41331;45.412;10.992;2023-06-10T02:00:48;100478.09;;;21.63;95.38
23433;BME280;41331;45.412;10.992;2023-06-10T02:03:15;100473.31;;;21.70;94.54
23433;BME280;41331;45.412;10.992;2023-06-10T02:05:43;100481.22;;;21.76;93.18
23433;BME280;41331;45.412;10.992;2023-06-10T02:08:11;100475.25;;;21.77;93.44
23433;BME280;41331;45.412;10.992;2023-06-10T02:10:38;100477.66;;;21.71;93.33
23433;BME280;41331;45.412;10.992;2023-06-10T02:13:06;100474.56;;;21.55;93.18
23433;BME280;41331;45.412;10.992;2023-06-10T02:15:37;100474.56;;;21.55;94.15
23433;BME280;41331;45.412;10.992;2023-06-10T02:18:04;100469.47;;;21.46;95.91
23433;BME280;41331;45.412;10.992;2023-06-10T02:20:31;100469.09;;;21.37;94.93
23433;BME280;41331;45.412;10.992;2023-06-10T02:22:59;100473.44;;;21.38;94.01
23433;BME280;41331;45.412;10.992;2023-06-10T02:25:26;100476.19;;;21.42;94.38
23433;BME280;41331;45.412;10.992;2023-06-10T02:27:54;100469.91;;;21.31;93.65
23433;BME280;41331;45.412;10.992;2023-06-10T02:30:21;100475.84;;;21.29;94.83
23433;BME280;41331;45.412;10.992;2023-06-10T02:32:50;100475.06;;;21.21;95.48
23433;BME280;41331;45.412;10.992;2023-06-10T02:35:19;100470.31;;;21.26;94.46
23433;BME280;41331;45.412;10.992;2023-06-10T02:37:47;100479.38;;;21.26;95.27
23433;BME280;41331;45.412;10.992;2023-06-10T02:40:14;100488.47;;;21.23;96.75
23433;BME280;41331;45.412;10.992;2023-06-10T02:42:42;100482.16;;;21.23;95.33
23433;BME280;41331;45.412;10.992;2023-06-10T02:45:10;100488.47;;;21.23;93.69
23433;BME280;41331;45.412;10.992;2023-06-10T02:47:41;100485.34;;;21.21;93.98
23433;BME280;41331;45.412;10.992;2023-06-10T02:50:10;100491.66;;;21.29;93.20
23433;BME280;41331;45.412;10.992;2023-06-10T02:52:48;100487.69;;;21.26;93.87
23433;BME280;41331;45.412;10.992;2023-06-10T02:55:16;100476.63;;;21.26;94.80
23433;BME280;41331;45.412;10.992;2023-06-10T02:57:49;100474.25;;;21.21;93.77
23433;BME280;41331;45.412;10.992;2023-06-10T03:00:18;100475.03;;;21.25;93.29
23433;BME280;41331;45.412;10.992;2023-06-10T03:02:52;100475.09;;;21.11;94.40
23433;BME280;41331;45.412;10.992;2023-06-10T03:05:24;100482.19;;;21.08;93.67
23433;BME280;41331;45.412;10.992;2023-06-10T03:07:53;100484.56;;;21.06;93.49
23433;BME280;41331;45.412;10.992;2023-06-10T03:10:22;100476.28;;;21.10;93.84
23433;BME280;41331;45.412;10.992;2023-06-10T03:12:49;100483.78;;;21.06;94.02
23433;BME280;41331;45.412;10.992;2023-06-10T03:15:17;100486.94;;;21.08;92.53
23433;BME280;41331;45.412;10.992;2023-06-10T03:17:45;100488.13;;;21.14;92.09
23433;BME280;41331;45.412;10.992;2023-06-10T03:20:12;100502.34;;;21.19;90.92
23433;BME280;41331;45.412;10.992;2023-06-10T03:22:43;100505.53;;;21.07;92.21
23433;BME280;41331;45.412;10.992;2023-06-10T03:25:13;100508.28;;;21.11;93.36
23433;BME280;41331;45.412;10.992;2023-06-10T03:27:45;100504.72;;;21.07;93.65
23433;BME280;41331;45.412;10.992;2023-06-10T03:30:13;100496.06;;;21.01;93.14
23433;BME280;41331;45.412;10.992;2023-06-10T03:32:46;100496.47;;;21.00;94.53
23433;BME280;41331;45.412;10.992;2023-06-10T03:35:16;100490.50;;;20.98;93.58
23433;BME280;41331;45.412;10.992;2023-06-10T03:37:45;100498.44;;;20.99;94.24
23433;BME280;41331;45.412;10.992;2023-06-10T03:40:15;100497.22;;;20.93;93.76
23433;BME280;41331;45.412;10.992;2023-06-10T03:42:45;100494.88;;;20.91;93.75
23433;BME280;41331;45.412;10.992;2023-06-10T03:45:15;100488.13;;;21.03;92.95
23433;BME280;41331;45.412;10.992;2023-06-10T03:47:42;100499.59;;;21.02;92.48
23433;BME280;41331;45.412;10.992;2023-06-10T03:50:13;100505.91;;;21.13;90.86
23433;BME280;41331;45.412;10.992;2023-06-10T03:52:43;100502.75;;;21.07;92.92
23433;BME280;41331;45.412;10.992;2023-06-10T03:55:12;100501.56;;;21.08;92.00
23433;BME280;41331;45.412;10.992;2023-06-10T03:57:44;100507.50;;;21.03;91.78
23433;BME280;41331;45.412;10.992;2023-06-10T04:00:12;100498.03;;;21.01;92.83
23433;BME280;41331;45.412;10.992;2023-06-10T04:02:42;100502.38;;;21.09;92.53
23433;BME280;41331;45.412;10.992;2023-06-10T04:05:20;100499.97;;;21.07;93.70
23433;BME280;41331;45.412;10.992;2023-06-10T04:07:52;100500.38;;;21.13;92.88
23433;BME280;41331;45.412;10.992;2023-06-10T04:10:19;100503.91;;;21.13;92.44
23433;BME280;41331;45.412;10.992;2023-06-10T04:12:47;100501.97;;;21.10;91.95
23433;BME280;41331;45.412;10.992;2023-06-10T04:15:15;100494.44;;;21.11;92.88
23433;BME280;41331;45.412;10.992;2023-06-10T04:17:43;100498.78;;;21.08;93.17
23433;BME280;41331;45.412;10.992;2023-06-10T04:20:11;100499.19;;;21.03;92.79
23433;BME280;41331;45.412;10.992;2023-06-10T04:22:43;100497.66;;;20.99;93.31
23433;BME280;41331;45.412;10.992;2023-06-10T04:25:11;100502.38;;;20.94;94.91
23433;BME280;41331;45.412;10.992;2023-06-10T04:27:40;100491.72;;;20.86;94.06
23433;BME280;41331;45.412;10.992;2023-06-10T04:30:08;100487.78;;;20.94;92.30
23433;BME280;41331;45.412;10.992;2023-06-10T04:32:37;100490.53;;;20.90;92.37
23433;BME280;41331;45.412;10.992;2023-06-10T04:35:11;100491.72;;;21.00;92.46
23433;BME280;41331;45.412;10.992;2023-06-10T04:37:40;100490.50;;;20.98;91.78
23433;BME280;41331;45.412;10.992;2023-06-10T04:40:09;100488.16;;;20.92;94.70
23433;BME280;41331;45.412;10.992;2023-06-10T04:42:37;100483.41;;;21.04;93.26
23433;BME280;41331;45.412;10.992;2023-06-10T04:45:05;100488.13;;;21.07;95.65
23433;BME280;41331;45.412;10.992;2023-06-10T04:47:34;100491.31;;;21.09;94.28
23433;BME280;41331;45.412;10.992;2023-06-10T04:50:02;100491.66;;;21.25;90.34
23433;BME280;41331;45.412;10.992;2023-06-10T04:52:30;100493.22;;;21.40;88.53
23433;BME280;41331;45.412;10.992;2023-06-10T04:54:58;100490.06;;;21.28;89.73
23433;BME280;41331;45.412;10.992;2023-06-10T04:57:26;100503.91;;;21.17;91.23
23433;BME280;41331;45.412;10.992;2023-06-10T04:59:53;100496.81;;;21.16;90.79
23433;BME280;41331;45.412;10.992;2023-06-10T05:02:21;100496.41;;;21.21;90.04
23433;BME280;41331;45.412;10.992;2023-06-10T05:04:48;100497.22;;;21.07;91.03
23433;BME280;41331;45.412;10.992;2023-06-10T05:07:18;100480.22;;;21.16;90.44
23433;BME280;41331;45.412;10.992;2023-06-10T05:09:45;100496.41;;;21.17;91.28
23433;BME280;41331;45.412;10.992;2023-06-10T05:12:13;100492.47;;;21.08;92.78
23433;BME280;41331;45.412;10.992;2023-06-10T05:14:40;100494.06;;;21.02;95.03
23433;BME280;41331;45.412;10.992;2023-06-10T05:17:08;100498.03;;;20.97;93.83
23433;BME280;41331;45.412;10.992;2023-06-10T05:19:35;100486.94;;;21.08;93.22
23433;BME280;41331;45.412;10.992;2023-06-10T05:22:04;100484.94;;;21.23;90.46
23433;BME280;41331;45.412;10.992;2023-06-10T05:24:31;100481.00;;;21.24;93.67
23433;BME280;41331;45.412;10.992;2023-06-10T05:26:59;100488.50;;;21.19;90.69
23433;BME280;41331;45.412;10.992;2023-06-10T05:29:27;100496.81;;;21.19;92.35
23433;BME280;41331;45.412;10.992;2023-06-10T05:31:54;100505.50;;;21.25;92.88
23433;BME280;41331;45.412;10.992;2023-06-10T05:34:24;100497.56;;;21.27;91.61
23433;BME280;41331;45.412;10.992;2023-06-10T05:36:52;100494.81;;;21.27;92.99
23433;BME280;41331;45.412;10.992;2023-06-10T05:39:20;100499.13;;;21.28;94.42
23433;BME280;41331;45.412;10.992;2023-06-10T05:41:48;100493.63;;;21.32;94.15
23433;BME280;41331;45.412;10.992;2023-06-10T05:44:15;100493.22;;;21.30;90.79
23433;BME280;41331;45.412;10.992;2023-06-10T05:46:43;100482.56;;;21.32;93.44
23433;BME280;41331;45.412;10.992;2023-06-10T05:49:10;100476.25;;;21.31;92.98
23433;BME280;41331;45.412;10.992;2023-06-10T05:51:37;100482.56;;;21.35;92.00
23433;BME280;41331;45.412;10.992;2023-06-10T05:54:05;100481.38;;;21.40;91.38
23433;BME280;41331;45.412;10.992;2023-06-10T05:56:33;100482.94;;;21.41;89.08
23433;BME280;41331;45.412;10.992;2023-06-10T05:59:00;100487.66;;;21.51;90.61
23433;BME280;41331;45.412;10.992;2023-06-10T06:01:28;100486.06;;;21.46;91.56
23433;BME280;41331;45.412;10.992;2023-06-10T06:03:55;100491.59;;;21.46;93.78
23433;BME280;41331;45.412;10.992;2023-06-10T06:06:23;100492.03;;;21.45;91.55
23433;BME280;41331;45.412;10.992;2023-06-10T06:08:51;100483.31;;;21.43;93.45
23433;BME280;41331;45.412;10.992;2023-06-10T06:11:18;100490.00;;;21.60;92.52
23433;BME280;41331;45.412;10.992;2023-06-10T06:13:45;100491.13;;;21.69;92.00
23433;BME280;41331;45.412;10.992;2023-06-10T06:16:19;100485.13;;;21.78;92.01
23433;BME280;41331;45.412;10.992;2023-06-10T06:18:47;100487.47;;;21.87;91.08
23433;BME280;41331;45.412;10.992;2023-06-10T06:21:14;100486.63;;;21.93;86.70
23433;BME280;41331;45.412;10.992;2023-06-10T06:23:42;100491.03;;;21.91;86.58
23433;BME280;41331;45.412;10.992;2023-06-10T06:26:09;100489.41;;;21.97;86.24
23433;BME280;41331;45.412;10.992;2023-06-10T06:28:37;100491.81;;;21.91;87.83
23433;BME280;41331;45.412;10.992;2023-06-10T06:31:04;100490.16;;;22.01;88.01
23433;BME280;41331;45.412;10.992;2023-06-10T06:33:32;100498.53;;;21.94;91.10
23433;BME280;41331;45.412;10.992;2023-06-10T06:36:00;100494.16;;;21.96;88.68
23433;BME280;41331;45.412;10.992;2023-06-10T06:38:28;100492.91;;;22.12;87.39
23433;BME280;41331;45.412;10.992;2023-06-10T06:40:55;100499.28;;;22.02;89.89
23433;BME280;41331;45.412;10.992;2023-06-10T06:43:22;100497.25;;;22.13;90.34
23433;BME280;41331;45.412;10.992;2023-06-10T06:46:03;100496.44;;;22.19;89.64
23433;BME280;41331;45.412;10.992;2023-06-10T06:48:30;100496.88;;;22.11;89.96
23433;BME280;41331;45.412;10.992;2023-06-10T06:50:58;100494.00;;;22.25;90.05
23433;BME280;41331;45.412;10.992;2023-06-10T06:53:25;100493.06;;;22.49;88.54
23433;BME280;41331;45.412;10.992;2023-06-10T06:55:55;100495.84;;;22.42;88.76
23433;BME280;41331;45.412;10.992;2023-06-10T06:58:22;100502.97;;;22.47;88.14
23433;BME280;41331;45.412;10.992;2023-06-10T07:00:50;100503.41;;;22.38;87.03
23433;BME280;41331;45.412;10.992;2023-06-10T07:03:21;100506.41;;;22.62;85.75
23433;BME280;41331;45.412;10.992;2023-06-10T07:05:48;100507.94;;;22.70;85.42
23433;BME280;41331;45.412;10.992;2023-06-10T07:08:15;100509.16;;;22.65;86.97
23433;BME280;41331;45.412;10.992;2023-06-10T07:10:43;100512.22;;;22.78;86.72
23433;BME280;41331;45.412;10.992;2023-06-10T07:13:13;100511.94;;;22.65;86.75
23433;BME280;41331;45.412;10.992;2023-06-10T07:15:43;100507.94;;;22.70;88.18
23433;BME280;41331;45.412;10.992;2023-06-10T07:18:11;100505.91;;;22.74;90.12
23433;BME280;41331;45.412;10.992;2023-06-10T07:20:41;100514.19;;;22.78;90.13
23433;BME280;41331;45.412;10.992;2023-06-10T07:23:11;100503.88;;;22.78;90.09
23433;BME280;41331;45.412;10.992;2023-06-10T07:25:38;100507.78;;;22.88;90.83
23433;BME280;41331;45.412;10.992;2023-06-10T07:28:06;100504.22;;;22.87;91.06
23433;BME280;41331;45.412;10.992;2023-06-10T07:30:34;100508.44;;;23.03;91.11
23433;BME280;41331;45.412;10.992;2023-06-10T07:33:01;100513.38;;;23.25;90.18
23433;BME280;41331;45.412;10.992;2023-06-10T07:35:30;100509.91;;;23.14;91.72
23433;BME280;41331;45.412;10.992;2023-06-10T07:37:57;100503.38;;;22.94;93.63
23433;BME280;41331;45.412;10.992;2023-06-10T07:40:24;100497.69;;;23.08;93.45
23433;BME280;41331;45.412;10.992;2023-06-10T07:42:52;100498.09;;;23.07;93.03
23433;BME280;41331;45.412;10.992;2023-06-10T07:45:20;100499.09;;;22.89;94.86
23433;BME280;41331;45.412;10.992;2023-06-10T07:47:47;100493.47;;;22.93;95.39
23433;BME280;41331;45.412;10.992;2023-06-10T07:50:15;100488.69;;;22.97;94.51
23433;BME280;41331;45.412;10.992;2023-06-10T07:52:42;100488.25;;;22.98;95.66
23433;BME280;41331;45.412;10.992;2023-06-10T07:55:09;100487.03;;;23.03;95.72
23433;BME280;41331;45.412;10.992;2023-06-10T07:57:38;100496.75;;;23.22;95.24
23433;BME280;41331;45.412;10.992;2023-06-10T08:00:06;100499.97;;;23.17;95.39
23433;BME280;41331;45.412;10.992;2023-06-10T08:02:39;100495.59;;;23.19;95.06
23433;BME280;41331;45.412;10.992;2023-06-10T08:05:07;100485.66;;;23.22;94.42
23433;BME280;41331;45.412;10.992;2023-06-10T08:07:35;100487.81;;;23.41;93.80
23433;BME280;41331;45.412;10.992;2023-06-10T08:10:03;100489.81;;;23.41;92.93
23433;BME280;41331;45.412;10.992;2023-06-10T08:12:35;100484.31;;;23.34;93.26
23433;BME280;41331;45.412;10.992;2023-06-10T08:15:03;100491.84;;;23.37;92.29
23433;BME280;41331;45.412;10.992;2023-06-10T08:17:31;100492.19;;;23.39;91.01
23433;BME280;41331;45.412;10.992;2023-06-10T08:19:59;100492.19;;;23.39;91.55
23433;BME280;41331;45.412;10.992;2023-06-10T08:22:27;100492.34;;;23.59;89.75
23433;BME280;41331;45.412;10.992;2023-06-10T08:24:56;100485.47;;;23.40;89.46
23433;BME280;41331;45.412;10.992;2023-06-10T08:27:23;100485.63;;;23.25;91.58
23433;BME280;41331;45.412;10.992;2023-06-10T08:29:52;100486.16;;;23.47;89.58
23433;BME280;41331;45.412;10.992;2023-06-10T08:32:22;100484.44;;;23.57;87.67
23433;BME280;41331;45.412;10.992;2023-06-10T08:34:50;100487.72;;;23.48;88.63
23433;BME280;41331;45.412;10.992;2023-06-10T08:37:17;100485.28;;;23.54;89.21
23433;BME280;41331;45.412;10.992;2023-06-10T08:39:44;100484.91;;;23.52;88.39
23433;BME280;41331;45.412;10.992;2023-06-10T08:42:33;100497.47;;;23.64;86.84
23433;BME280;41331;45.412;10.992;2023-06-10T08:45:02;100486.81;;;23.59;86.02
23433;BME280;41331;45.412;10.992;2023-06-10T08:47:32;100482.00;;;23.66;86.15
23433;BME280;41331;45.412;10.992;2023-06-10T08:50:04;100483.19;;;23.62;87.42
23433;BME280;41331;45.412;10.992;2023-06-10T08:52:36;100487.25;;;23.53;87.72
23433;BME280;41331;45.412;10.992;2023-06-10T08:57:43;100480.59;;;23.47;86.59
23433;BME280;41331;45.412;10.992;2023-06-10T09:00:13;100489.56;;;23.59;85.51
23433;BME280;41331;45.412;10.992;2023-06-10T09:02:41;100491.53;;;23.65;86.81
23433;BME280;41331;45.412;10.992;2023-06-10T09:05:09;100485.19;;;23.61;87.39
23433;BME280;41331;45.412;10.992;2023-06-10T09:07:37;100493.00;;;23.73;85.55
23433;BME280;41331;45.412;10.992;2023-06-10T09:10:06;100493.59;;;23.88;85.11
23433;BME280;41331;45.412;10.992;2023-06-10T09:12:37;100490.66;;;23.72;84.31
23433;BME280;41331;45.412;10.992;2023-06-10T09:15:06;100488.09;;;23.85;85.23
23433;BME280;41331;45.412;10.992;2023-06-10T09:17:34;100483.28;;;24.16;82.68
23433;BME280;41331;45.412;10.992;2023-06-10T09:20:05;100490.59;;;24.06;81.78
23433;BME280;41331;45.412;10.992;2023-06-10T09:22:37;100491.16;;;24.21;80.49
23433;BME280;41331;45.412;10.992;2023-06-10T09:25:09;100494.34;;;24.19;79.87
23433;BME280;41331;45.412;10.992;2023-06-10T09:27:51;100490.94;;;24.35;76.05
23433;BME280;41331;45.412;10.992;2023-06-10T09:30:27;100492.75;;;24.72;75.20
23433;BME280;41331;45.412;10.992;2023-06-10T09:32:57;100494.84;;;24.65;74.70
23433;BME280;41331;45.412;10.992;2023-06-10T09:35:26;100476.59;;;24.64;73.11
23433;BME280;41331;45.412;10.992;2023-06-10T09:37:59;100484.97;;;24.84;73.50
23433;BME280;41331;45.412;10.992;2023-06-10T09:40:27;100496.00;;;24.67;71.40
23433;BME280;41331;45.412;10.992;2023-06-10T09:42:57;100494.50;;;24.86;71.11
23433;BME280;41331;45.412;10.992;2023-06-10T09:45:32;100498.44;;;24.65;70.74
23433;BME280;41331;45.412;10.992;2023-06-10T09:48:00;100496.13;;;24.84;70.56
23433;BME280;41331;45.412;10.992;2023-06-10T09:50:32;100491.66;;;24.66;66.10
23433;BME280;41331;45.412;10.992;2023-06-10T09:53:00;100492.69;;;24.76;67.86
23433;BME280;41331;45.412;10.992;2023-06-10T09:55:32;100493.03;;;24.78;68.61
23433;BME280;41331;45.412;10.992;2023-06-10T09:58:00;100492.94;;;24.62;68.60
23433;BME280;41331;45.412;10.992;2023-06-10T10:00:27;100490.88;;;24.66;67.98
23433;BME280;41331;45.412;10.992;2023-06-10T10:02:55;100493.19;;;24.71;68.46
23433;BME280;41331;45.412;10.992;2023-06-10T10:05:23;100491.41;;;24.57;69.66
23433;BME280;41331;45.412;10.992;2023-06-10T10:07:51;100496.50;;;24.62;69.09
23433;BME280;41331;45.412;10.992;2023-06-10T10:10:20;100495.56;;;24.69;68.49
23433;BME280;41331;45.412;10.992;2023-06-10T10:12:53;100485.91;;;24.77;68.09
23433;BME280;41331;45.412;10.992;2023-06-10T10:15:25;100501.63;;;24.87;68.60
23433;BME280;41331;45.412;10.992;2023-06-10T10:18:06;100495.66;;;24.65;68.60
23433;BME280;41331;45.412;10.992;2023-06-10T10:20:43;100490.75;;;24.73;67.67
23433;BME280;41331;45.412;10.992;2023-06-10T10:23:18;100469.88;;;24.38;67.18
23433;BME280;41331;45.412;10.992;2023-06-10T10:25:51;100483.25;;;24.46;66.56
23433;BME280;41331;45.412;10.992;2023-06-10T10:28:21;100488.22;;;24.32;66.97
23433;BME280;41331;45.412;10.992;2023-06-10T10:30:57;100470.59;;;24.42;65.78
23433;BME280;41331;45.412;10.992;2023-06-10T10:33:53;100470.41;;;24.52;65.22
23433;BME280;41331;45.412;10.992;2023-06-10T10:36:23;100473.44;;;24.62;65.95
23433;BME280;41331;45.412;10.992;2023-06-10T10:38:51;100474.41;;;24.75;65.83
23433;BME280;41331;45.412;10.992;2023-06-10T10:41:19;100480.03;;;24.71;64.46
23433;BME280;41331;45.412;10.992;2023-06-10T10:43:49;100475.50;;;24.81;63.79
23433;BME280;41331;45.412;10.992;2023-06-10T10:46:18;100478.09;;;24.68;65.67
23433;BME280;41331;45.412;10.992;2023-06-10T10:48:52;100486.63;;;24.81;64.92
23433;BME280;41331;45.412;10.992;2023-06-10T10:51:19;100482.16;;;25.11;65.54
23433;BME280;41331;45.412;10.992;2023-06-10T10:54:11;100484.78;;;25.18;64.62
23433;BME280;41331;45.412;10.992;2023-06-10T10:56:39;100483.56;;;25.19;65.64
23433;BME280;41331;45.412;10.992;2023-06-10T10:59:09;100490.00;;;25.16;65.46
23433;BME280;41331;45.412;10.992;2023-06-10T11:01:43;100481.84;;;25.45;65.66
23433;BME280;41331;45.412;10.992;2023-06-10T11:04:17;100483.59;;;25.78;64.67
23433;BME280;41331;45.412;10.992;2023-06-10T11:06:53;100479.78;;;25.69;64.21
23433;BME280;41331;45.412;10.992;2023-06-10T11:09:25;100482.94;;;25.71;63.73
23433;BME280;41331;45.412;10.992;2023-06-10T11:11:57;100471.69;;;25.74;63.87
23433;BME280;41331;45.412;10.992;2023-06-10T11:14:27;100464.72;;;25.66;65.39
23433;BME280;41331;45.412;10.992;2023-06-10T11:16:59;100467.50;;;25.66;64.75
23433;BME280;41331;45.412;10.992;2023-06-10T11:19:37;100470.63;;;25.68;64.08
23433;BME280;41331;45.412;10.992;2023-06-10T11:22:08;100468.84;;;26.14;62.39
23433;BME280;41331;45.412;10.992;2023-06-10T11:24:37;100454.03;;;26.50;61.98
23433;BME280;41331;45.412;10.992;2023-06-10T11:27:21;100461.03;;;26.58;61.22
23433;BME280;41331;45.412;10.992;2023-06-10T11:32:34;100451.69;;;26.65;61.21
23433;BME280;41331;45.412;10.992;2023-06-10T11:35:07;100448.81;;;26.68;61.35
23433;BME280;41331;45.412;10.992;2023-06-10T11:37:35;100461.63;;;26.82;60.56
23433;BME280;41331;45.412;10.992;2023-06-10T11:40:03;100456.84;;;27.12;62.02
23433;BME280;41331;45.412;10.992;2023-06-10T11:42:31;100456.50;;;27.09;60.56
23433;BME280;41331;45.412;10.992;2023-06-10T11:44:58;100450.09;;;26.80;61.22
23433;BME280;41331;45.412;10.992;2023-06-10T11:47:29;100462.38;;;26.82;62.26
23433;BME280;41331;45.412;10.992;2023-06-10T11:49:57;100457.63;;;26.50;60.62
23433;BME280;41331;45.412;10.992;2023-06-10T11:52:31;100455.69;;;26.31;61.10
23433;BME280;41331;45.412;10.992;2023-06-10T11:55:00;100455.50;;;26.38;60.93
23433;BME280;41331;45.412;10.992;2023-06-10T11:57:28;100443.06;;;26.59;62.06
23433;BME280;41331;45.412;10.992;2023-06-10T12:00:04;100438.34;;;26.72;62.05
23433;BME280;41331;45.412;10.992;2023-06-10T12:02:37;100434.88;;;26.52;61.48
23433;BME280;41331;45.412;10.992;2023-06-10T12:05:15;100430.28;;;26.74;60.62
23433;BME280;41331;45.412;10.992;2023-06-10T12:07:42;100427.25;;;26.69;60.43
23433;BME280;41331;45.412;10.992;2023-06-10T12:10:09;100415.63;;;26.70;60.71
23433;BME280;41331;45.412;10.992;2023-06-10T12:12:53;100416.78;;;26.73;61.46
23433;BME280;41331;45.412;10.992;2023-06-10T12:15:27;100400.47;;;27.00;59.58
23433;BME280;41331;45.412;10.992;2023-06-10T12:17:56;100411.44;;;26.78;60.49
23433;BME280;41331;45.412;10.992;2023-06-10T12:20:26;100395.34;;;26.53;59.02
23433;BME280;41331;45.412;10.992;2023-06-10T12:22:54;100392.06;;;26.26;59.89
23433;BME280;41331;45.412;10.992;2023-06-10T12:25:26;100390.22;;;26.19;60.88
23433;BME280;41331;45.412;10.992;2023-06-10T12:27:57;100397.09;;;26.15;60.84
23433;BME280;41331;45.412;10.992;2023-06-10T12:30:27;100386.91;;;25.92;60.29
23433;BME280;41331;45.412;10.992;2023-06-10T12:32:55;100393.25;;;25.76;61.68
23433;BME280;41331;45.412;10.992;2023-06-10T12:35:26;100400.66;;;25.82;60.59
23433;BME280;41331;45.412;10.992;2023-06-10T12:38:01;100399.44;;;25.47;62.30
23433;BME280;41331;45.412;10.992;2023-06-10T12:40:34;100390.31;;;25.63;61.25
23433;BME280;41331;45.412;10.992;2023-06-10T12:43:03;100400.47;;;25.90;62.03
23433;BME280;41331;45.412;10.992;2023-06-10T12:45:38;100395.91;;;26.16;60.55
23433;BME280;41331;45.412;10.992;2023-06-10T12:48:22;100393.97;;;26.29;59.16
23433;BME280;41331;45.412;10.992;2023-06-10T12:50:53;100387.63;;;26.12;58.60
23433;BME280;41331;45.412;10.992;2023-06-10T12:53:21;100383.81;;;26.68;56.36
23433;BME280;41331;45.412;10.992;2023-06-10T12:55:50;100387.16;;;26.63;54.98
23433;BME280;41331;45.412;10.992;2023-06-10T12:58:22;100396.91;;;26.54;55.40
23433;BME280;41331;45.412;10.992;2023-06-10T13:00:50;100396.66;;;26.94;55.30
23433;BME280;41331;45.412;10.992;2023-06-10T13:03:20;100386.38;;;27.33;53.38
23433;BME280;41331;45.412;10.992;2023-06-10T13:05:47;100384.31;;;27.75;52.81